createdAt,value
2019-03-23T00:01:52.349Z,81.81
2019-03-23T00:04:25.388Z,81.89
2019-03-23T00:06:56.159Z,82.19
2019-03-23T00:09:27.542Z,82.31
2019-03-23T00:11:58.578Z,82.29
2019-03-23T00:14:29.586Z,81.94
2019-03-23T00:17:00.287Z,81.59
2019-03-23T00:19:31.675Z,81.79
2019-03-23T00:22:04.163Z,82.07
2019-03-23T00:24:35.367Z,82.39
2019-03-23T00:27:06.252Z,82.81
2019-03-23T00:29:37.218Z,82.99
2019-03-23T00:32:09.389Z,82.86
2019-03-23T00:34:40.239Z,82.63
2019-03-23T00:37:12.417Z,82.57
2019-03-23T00:39:43.295Z,82.87
2019-03-23T00:42:14.251Z,83.42
2019-03-23T00:44:45.363Z,83.62
2019-03-23T00:47:16.435Z,84.06
2019-03-23T00:49:47.477Z,83.71
2019-03-23T00:52:18.523Z,83.78
2019-03-23T00:54:49.512Z,83.79
2019-03-23T00:57:20.584Z,83.51
2019-03-23T00:59:51.889Z,83.37
2019-03-23T01:02:22.938Z,83.66
2019-03-23T01:04:53.835Z,84.08
2019-03-23T01:07:24.806Z,84.04
2019-03-23T01:09:55.786Z,84.09
2019-03-23T01:12:26.752Z,84.03
2019-03-23T01:14:57.816Z,84.12
2019-03-23T01:17:29.199Z,84.74
2019-03-23T01:19:59.901Z,85.05
2019-03-23T01:22:31.837Z,85.22
2019-03-23T01:25:02.812Z,85.54
2019-03-23T01:27:33.795Z,86.14
2019-03-23T01:30:05.180Z,86.04
2019-03-23T01:32:36.009Z,85.82
2019-03-23T01:35:08.434Z,85.76
2019-03-23T01:37:39.287Z,85.96
2019-03-23T01:40:10.575Z,85.76
2019-03-23T01:42:41.736Z,85.62
2019-03-23T01:45:14.160Z,85.37
2019-03-23T01:47:45.290Z,85.12
2019-03-23T01:50:16.246Z,85.48
2019-03-23T01:52:47.427Z,85.90
2019-03-23T01:55:18.370Z,86.31
2019-03-23T01:57:49.225Z,86.51
2019-03-23T02:00:20.016Z,86.99
2019-03-23T02:02:51.124Z,86.86
2019-03-23T02:05:22.107Z,86.79
2019-03-23T02:07:52.918Z,86.75
2019-03-23T02:10:23.782Z,86.73
2019-03-23T02:12:54.524Z,86.92
2019-03-23T02:15:25.254Z,87.34
2019-03-23T02:17:56.917Z,87.55
2019-03-23T02:20:27.747Z,88.08
2019-03-23T02:22:58.867Z,88.10
2019-03-23T02:25:29.872Z,86.77
2019-03-23T02:28:01.137Z,86.40
2019-03-23T02:30:32.393Z,86.32
2019-03-23T02:33:03.437Z,86.87
2019-03-23T02:35:34.538Z,87.38
2019-03-23T02:38:05.635Z,87.82
2019-03-23T02:40:36.821Z,88.10
2019-03-23T02:43:07.945Z,87.81
2019-03-23T02:45:39.057Z,87.58
2019-03-23T02:48:09.858Z,87.52
2019-03-23T02:50:40.699Z,87.16
2019-03-23T02:53:11.871Z,87.52
2019-03-23T02:55:42.811Z,87.79
2019-03-23T02:58:13.776Z,88.12
2019-03-23T03:00:44.890Z,88.06
2019-03-23T03:03:15.827Z,88.05
2019-03-23T03:05:46.795Z,88.34
2019-03-23T03:08:17.817Z,88.39
2019-03-23T03:10:48.623Z,88.77
2019-03-23T03:13:20.078Z,88.94
2019-03-23T03:15:50.761Z,88.92
2019-03-23T03:18:21.818Z,89.07
2019-03-23T03:20:52.764Z,89.01
2019-03-23T03:23:23.531Z,88.59
2019-03-23T03:25:54.463Z,88.47
2019-03-23T03:28:25.438Z,89.07
2019-03-23T03:30:56.253Z,89.08
2019-03-23T03:33:27.133Z,89.51
2019-03-23T03:35:58.209Z,89.51
2019-03-23T03:38:29.152Z,89.64
2019-03-23T03:41:00.212Z,89.50
2019-03-23T03:43:30.959Z,89.54
2019-03-23T03:46:01.956Z,89.56
2019-03-23T03:48:32.934Z,89.68
2019-03-23T03:51:03.792Z,89.72
2019-03-23T03:53:34.850Z,90.01
2019-03-23T03:56:06.170Z,90.01
2019-03-23T03:58:37.133Z,90.23
2019-03-23T04:01:08.015Z,90.36
2019-03-23T04:03:38.800Z,89.90
2019-03-23T04:06:09.917Z,89.95
2019-03-23T04:08:42.251Z,90.06
2019-03-23T04:11:13.405Z,90.19
2019-03-23T04:13:44.627Z,90.28
2019-03-23T04:16:15.462Z,90.45
2019-03-23T04:18:46.881Z,90.41
2019-03-23T04:21:17.590Z,90.08
2019-03-23T04:23:48.474Z,90.05
2019-03-23T04:26:19.428Z,89.91
2019-03-23T04:28:50.333Z,89.97
2019-03-23T04:31:21.334Z,90.08
2019-03-23T04:33:52.272Z,90.27
2019-03-23T04:36:23.251Z,90.64
2019-03-23T04:38:54.356Z,90.88
2019-03-23T04:41:25.272Z,90.70
2019-03-23T04:43:56.446Z,90.62
2019-03-23T04:46:27.143Z,90.66
2019-03-23T04:48:57.992Z,91.00
2019-03-23T04:51:29.032Z,90.97
2019-03-23T04:54:00.022Z,91.18
2019-03-23T04:56:30.759Z,91.07
2019-03-23T04:59:01.796Z,91.04
2019-03-23T05:01:32.702Z,90.92
2019-03-23T05:04:03.624Z,90.95
2019-03-23T05:06:34.563Z,91.14
2019-03-23T05:09:09.602Z,91.26
2019-03-23T05:11:40.548Z,91.13
2019-03-23T05:14:11.737Z,90.79
2019-03-23T05:16:42.836Z,90.74
2019-03-23T05:19:13.851Z,90.74
2019-03-23T05:21:44.801Z,90.89
2019-03-23T05:24:16.167Z,91.03
2019-03-23T05:26:47.362Z,91.16
2019-03-23T05:29:18.574Z,91.16
2019-03-23T05:31:49.897Z,91.26
2019-03-23T05:34:21.184Z,91.37
2019-03-23T05:36:52.277Z,91.39
2019-03-23T05:39:23.333Z,91.26
2019-03-23T05:41:54.421Z,91.18
2019-03-23T05:44:25.428Z,91.27
2019-03-23T05:46:56.208Z,91.21
2019-03-23T05:49:27.374Z,91.15
2019-03-23T05:51:58.359Z,91.09
2019-03-23T05:54:29.576Z,91.09
2019-03-23T05:57:00.606Z,90.84
2019-03-23T05:59:31.833Z,90.84
2019-03-23T06:02:02.965Z,90.62
2019-03-23T06:04:34.154Z,89.98
2019-03-23T06:07:05.197Z,89.43
2019-03-23T06:09:36.118Z,89.15
2019-03-23T06:12:07.046Z,88.85
2019-03-23T06:14:38.001Z,88.45
2019-03-23T06:17:09.010Z,88.25
2019-03-23T06:19:40.075Z,87.88
2019-03-23T06:22:10.751Z,87.26
2019-03-23T06:24:41.605Z,86.65
2019-03-23T06:27:12.882Z,86.23
2019-03-23T06:29:44.043Z,85.64
2019-03-23T06:32:14.884Z,85.17
2019-03-23T06:34:45.822Z,84.24
2019-03-23T06:37:16.864Z,83.07
2019-03-23T06:39:48.043Z,82.16
2019-03-23T06:42:19.848Z,80.91
2019-03-23T06:44:50.816Z,80.02
2019-03-23T06:47:21.792Z,79.27
2019-03-23T06:49:52.688Z,78.29
2019-03-23T06:52:23.684Z,77.82
2019-03-23T06:54:54.678Z,76.94
2019-03-23T06:57:26.006Z,75.65
2019-03-23T06:59:57.000Z,75.02
2019-03-23T07:02:28.107Z,73.04
2019-03-23T07:04:58.838Z,71.10
2019-03-23T07:07:30.898Z,69.93
2019-03-23T07:10:02.128Z,69.87
2019-03-23T07:12:35.935Z,69.02
2019-03-23T07:15:19.098Z,69.04
2019-03-23T07:17:41.013Z,66.99
2019-03-23T07:20:12.789Z,66.23
2019-03-23T07:22:43.524Z,63.81
2019-03-23T07:25:14.588Z,62.17
2019-03-23T07:27:45.618Z,62.04
2019-03-23T07:30:16.974Z,60.81
2019-03-23T07:32:48.208Z,58.38
2019-03-23T07:35:19.387Z,56.50
2019-03-23T07:37:50.773Z,54.59
2019-03-23T07:40:21.753Z,50.78
2019-03-23T07:42:52.970Z,49.71
2019-03-23T07:45:24.092Z,46.94
2019-03-23T07:47:55.228Z,45.52
2019-03-23T07:50:26.414Z,43.88
2019-03-23T07:52:57.536Z,42.12
2019-03-23T07:55:28.716Z,41.29
2019-03-23T07:57:59.726Z,40.17
2019-03-23T08:00:30.894Z,38.76
2019-03-23T08:03:02.218Z,38.09
2019-03-23T08:05:33.354Z,37.08
2019-03-23T08:08:04.648Z,35.44
2019-03-23T08:10:35.984Z,34.29
2019-03-23T08:13:06.964Z,34.01
2019-03-23T08:15:38.186Z,33.54
2019-03-23T08:18:09.338Z,32.91
2019-03-23T08:20:40.288Z,30.01
2019-03-23T08:23:11.655Z,29.38
2019-03-23T08:25:42.790Z,27.99
2019-03-23T08:28:14.003Z,28.51
2019-03-23T08:30:44.907Z,28.07
2019-03-23T08:33:18.170Z,27.03
2019-03-23T08:35:49.402Z,26.98
2019-03-23T08:38:20.561Z,28.29
2019-03-23T08:40:51.532Z,26.94
2019-03-23T08:43:22.767Z,25.99
2019-03-23T08:45:54.039Z,25.15
2019-03-23T08:48:25.472Z,25.69
2019-03-23T08:50:56.792Z,26.45
2019-03-23T08:53:28.748Z,26.32
2019-03-23T08:55:59.911Z,26.42
2019-03-23T08:58:30.945Z,25.11
2019-03-23T09:01:02.062Z,24.56
2019-03-23T09:03:33.153Z,23.41
2019-03-23T09:06:04.355Z,23.53
2019-03-23T09:08:35.466Z,22.00
2019-03-23T09:11:06.749Z,20.74
2019-03-23T09:13:40.823Z,20.27
2019-03-23T09:16:10.598Z,20.16
2019-03-23T09:18:42.269Z,19.46
2019-03-23T09:21:13.343Z,19.65
2019-03-23T09:23:44.512Z,20.34
2019-03-23T09:26:15.877Z,20.03
2019-03-23T09:28:47.822Z,19.11
2019-03-23T09:31:19.087Z,17.74
2019-03-23T09:33:51.291Z,17.47
2019-03-23T09:36:23.604Z,16.99
2019-03-23T09:38:55.056Z,17.77
2019-03-23T09:41:26.052Z,17.42
2019-03-23T09:43:57.195Z,16.39
2019-03-23T09:46:28.282Z,15.96
2019-03-23T09:49:00.599Z,16.52
2019-03-23T09:51:31.542Z,16.43
2019-03-23T09:54:02.765Z,16.17
2019-03-23T09:56:34.083Z,15.77
2019-03-23T09:59:05.046Z,16.25
2019-03-23T10:01:36.121Z,14.51
2019-03-23T10:04:07.371Z,14.18
2019-03-23T10:06:38.432Z,14.17
2019-03-23T10:09:09.458Z,14.60
2019-03-23T10:11:40.938Z,14.46
2019-03-23T10:14:12.117Z,13.42
2019-03-23T10:16:41.923Z,13.56
2019-03-23T10:19:11.550Z,12.38
2019-03-23T10:21:41.126Z,12.20
2019-03-23T10:24:12.167Z,12.07
2019-03-23T10:26:42.029Z,11.75
2019-03-23T10:29:13.132Z,11.28
2019-03-23T10:31:44.458Z,11.05
2019-03-23T10:34:15.251Z,12.11
2019-03-23T10:36:46.110Z,12.46
2019-03-23T10:39:16.033Z,13.23
2019-03-23T10:41:47.250Z,12.39
2019-03-23T10:44:18.249Z,12.00
2019-03-23T10:46:49.367Z,11.70
2019-03-23T10:49:20.461Z,11.64
2019-03-23T10:51:50.236Z,13.90
2019-03-23T10:54:22.344Z,12.10
2019-03-23T10:56:53.162Z,13.64
2019-03-23T10:59:24.008Z,13.85
2019-03-23T11:01:54.991Z,14.54
2019-03-23T11:04:25.750Z,14.51
2019-03-23T11:06:56.985Z,14.26
2019-03-23T11:09:26.591Z,14.16
2019-03-23T11:11:56.230Z,12.92
2019-03-23T11:14:29.520Z,12.98
2019-03-23T11:16:59.158Z,13.58
2019-03-23T11:19:28.899Z,13.79
2019-03-23T11:21:58.363Z,12.43
2019-03-23T11:24:28.478Z,12.12
2019-03-23T11:26:58.602Z,11.69
2019-03-23T11:29:29.805Z,12.36
2019-03-23T11:32:00.943Z,12.29
2019-03-23T11:34:32.257Z,12.15
2019-03-23T11:37:03.636Z,11.05
2019-03-23T11:39:34.783Z,10.46
2019-03-23T11:42:05.895Z,9.79
2019-03-23T11:44:35.517Z,10.27
2019-03-23T11:47:06.251Z,11.81
2019-03-23T11:49:37.353Z,13.35
2019-03-23T11:52:08.163Z,12.45
2019-03-23T11:54:38.944Z,11.41
2019-03-23T11:57:08.658Z,11.19
2019-03-23T11:59:38.232Z,10.58
2019-03-23T12:02:09.204Z,10.66
2019-03-23T12:04:40.217Z,11.23
2019-03-23T12:07:11.494Z,11.33
2019-03-23T12:09:42.610Z,11.63
2019-03-23T12:12:13.681Z,13.67
2019-03-23T12:14:45.002Z,12.55
2019-03-23T12:17:16.114Z,12.03
2019-03-23T12:19:47.394Z,12.07
2019-03-23T12:22:18.483Z,11.88
2019-03-23T12:24:48.167Z,12.26
2019-03-23T12:27:19.025Z,12.03
2019-03-23T12:29:50.081Z,10.95
2019-03-23T12:32:21.246Z,10.80
2019-03-23T12:34:52.388Z,11.52
2019-03-23T12:37:23.346Z,11.62
2019-03-23T12:39:53.171Z,11.32
2019-03-23T12:42:24.936Z,11.21
2019-03-23T12:44:56.091Z,10.68
2019-03-23T12:47:28.147Z,10.50
2019-03-23T12:49:59.570Z,10.64
2019-03-23T12:52:31.664Z,10.38
2019-03-23T12:55:02.709Z,10.63
2019-03-23T12:57:33.955Z,10.51
2019-03-23T13:00:03.938Z,11.00
2019-03-23T13:02:33.703Z,10.97
2019-03-23T13:05:04.768Z,11.44
2019-03-23T13:07:34.577Z,10.67
2019-03-23T13:10:06.276Z,11.20
2019-03-23T13:12:37.373Z,11.05
2019-03-23T13:15:07.531Z,11.63
2019-03-23T13:17:37.071Z,11.70
2019-03-23T13:20:08.835Z,12.24
2019-03-23T13:22:40.308Z,11.87
2019-03-23T13:25:11.274Z,12.88
2019-03-23T13:27:42.492Z,13.82
2019-03-23T13:30:14.250Z,12.04
2019-03-23T13:32:45.477Z,10.87
2019-03-23T13:35:16.720Z,10.12
2019-03-23T13:37:47.606Z,9.88
2019-03-23T13:40:18.919Z,10.74
2019-03-23T13:42:50.000Z,13.48
2019-03-23T13:45:21.157Z,14.13
2019-03-23T13:47:52.299Z,14.35
2019-03-23T13:50:28.476Z,15.01
2019-03-23T13:52:57.978Z,14.60
2019-03-23T13:55:31.213Z,13.52
2019-03-23T13:58:12.534Z,14.17
2019-03-23T14:00:44.760Z,15.89
2019-03-23T14:03:15.819Z,15.78
2019-03-23T14:05:46.793Z,15.48
2019-03-23T14:08:17.784Z,16.17
2019-03-23T14:10:49.652Z,15.96
2019-03-23T14:13:20.629Z,18.22
2019-03-23T14:15:51.832Z,17.50
2019-03-23T14:18:22.936Z,17.38
2019-03-23T14:20:54.287Z,17.23
2019-03-23T14:23:25.622Z,19.19
2019-03-23T14:25:56.750Z,18.49
2019-03-23T14:28:28.822Z,17.50
2019-03-23T14:31:00.045Z,16.48
2019-03-23T14:33:32.902Z,17.38
2019-03-23T14:36:04.429Z,17.66
2019-03-23T14:38:35.903Z,16.49
2019-03-23T14:41:07.368Z,16.94
2019-03-23T14:43:38.980Z,17.30
2019-03-23T14:46:10.075Z,17.64
2019-03-23T14:48:45.497Z,21.65
2019-03-23T14:51:16.550Z,21.96
2019-03-23T14:53:47.824Z,22.28
2019-03-23T14:56:18.855Z,23.23
2019-03-23T14:58:49.742Z,23.02
2019-03-23T15:01:21.078Z,22.33
2019-03-23T15:03:52.264Z,23.87
2019-03-23T15:06:23.682Z,23.64
2019-03-23T15:08:56.167Z,23.37
2019-03-23T15:11:27.253Z,25.18
2019-03-23T15:13:58.756Z,26.12
2019-03-23T15:16:29.869Z,25.44
2019-03-23T15:19:02.068Z,25.78
2019-03-23T15:21:33.089Z,26.22
2019-03-23T15:24:05.663Z,26.39
2019-03-23T15:26:36.569Z,26.29
2019-03-23T15:29:08.526Z,26.36
2019-03-23T15:31:39.948Z,26.37
2019-03-23T15:34:11.953Z,27.57
2019-03-23T15:36:43.058Z,27.08
2019-03-23T15:39:14.507Z,27.23
2019-03-23T15:41:45.484Z,27.21
2019-03-23T15:44:16.549Z,27.20
2019-03-23T15:46:47.704Z,27.83
2019-03-23T15:49:18.939Z,27.91
2019-03-23T15:51:52.587Z,28.03
2019-03-23T15:54:23.557Z,29.08
2019-03-23T15:56:54.529Z,29.18
2019-03-23T15:59:26.018Z,29.08
2019-03-23T16:01:57.548Z,28.91
2019-03-23T16:04:29.060Z,30.45
2019-03-23T16:07:00.333Z,30.07
2019-03-23T16:09:32.320Z,30.02
2019-03-23T16:12:03.541Z,29.98
2019-03-23T16:14:34.680Z,30.36
2019-03-23T16:17:05.791Z,30.52
2019-03-23T16:19:37.073Z,30.55
2019-03-23T16:22:08.271Z,30.63
2019-03-23T16:24:40.544Z,30.56
2019-03-23T16:27:11.588Z,31.21
2019-03-23T16:29:42.717Z,31.52
2019-03-23T16:32:13.999Z,31.76
2019-03-23T16:34:45.259Z,31.81
2019-03-23T16:37:16.157Z,31.98
2019-03-23T16:39:47.357Z,32.35
2019-03-23T16:42:18.662Z,32.71
2019-03-23T16:44:49.605Z,32.95
2019-03-23T16:47:20.783Z,33.57
2019-03-23T16:49:52.014Z,33.99
2019-03-23T16:52:23.256Z,34.26
2019-03-23T16:54:54.374Z,34.85
2019-03-23T16:57:25.741Z,35.94
2019-03-23T16:59:56.797Z,35.59
2019-03-23T17:02:27.944Z,36.13
2019-03-23T17:04:59.076Z,36.51
2019-03-23T17:07:30.311Z,36.99
2019-03-23T17:10:01.710Z,37.21
2019-03-23T17:12:33.779Z,37.72
2019-03-23T17:15:05.425Z,38.02
2019-03-23T17:17:36.353Z,38.58
2019-03-23T17:20:13.219Z,38.97
2019-03-23T17:22:44.222Z,39.57
2019-03-23T17:25:15.486Z,40.20
2019-03-23T17:27:46.479Z,40.26
2019-03-23T17:30:17.703Z,40.63
2019-03-23T17:32:50.604Z,41.11
2019-03-23T17:35:21.794Z,42.16
2019-03-23T17:37:53.014Z,42.10
2019-03-23T17:40:24.503Z,42.91
2019-03-23T17:43:05.354Z,43.41
2019-03-23T17:45:29.639Z,43.78
2019-03-23T17:48:00.657Z,43.95
2019-03-23T17:50:32.020Z,44.52
2019-03-23T17:53:03.229Z,44.81
2019-03-23T17:55:34.440Z,45.13
2019-03-23T17:58:05.927Z,45.57
2019-03-23T18:00:37.000Z,46.13
2019-03-23T18:03:08.147Z,46.59
2019-03-23T18:05:41.091Z,46.81
2019-03-23T18:08:12.177Z,47.11
2019-03-23T18:10:43.361Z,47.62
2019-03-23T18:13:16.818Z,47.68
2019-03-23T18:15:47.153Z,48.25
2019-03-23T18:18:18.237Z,48.74
2019-03-23T18:20:49.774Z,49.23
2019-03-23T18:23:21.038Z,49.44
2019-03-23T18:25:51.986Z,49.88
2019-03-23T18:28:23.222Z,50.23
2019-03-23T18:30:54.866Z,51.05
2019-03-23T18:33:25.971Z,51.25
2019-03-23T18:35:57.922Z,51.55
2019-03-23T18:38:29.124Z,52.08
2019-03-23T18:41:01.379Z,52.22
2019-03-23T18:43:34.432Z,52.53
2019-03-23T18:46:06.011Z,52.82
2019-03-23T18:48:37.106Z,53.17
2019-03-23T18:51:08.132Z,53.82
2019-03-23T18:53:39.234Z,53.84
2019-03-23T18:56:11.405Z,54.08
2019-03-23T18:58:42.588Z,54.79
2019-03-23T19:01:14.899Z,55.01
2019-03-23T19:03:46.162Z,55.54
2019-03-23T19:06:18.093Z,55.66
2019-03-23T19:08:49.775Z,55.79
2019-03-23T19:11:21.360Z,56.05
2019-03-23T19:13:52.444Z,56.59
2019-03-23T19:16:23.440Z,57.25
2019-03-23T19:18:54.853Z,57.37
2019-03-23T19:21:25.915Z,57.43
2019-03-23T19:23:57.020Z,57.78
2019-03-23T19:26:28.342Z,58.32
2019-03-23T19:28:59.413Z,58.25
2019-03-23T19:31:30.596Z,58.31
2019-03-23T19:34:01.748Z,58.61
2019-03-23T19:36:33.101Z,59.00
2019-03-23T19:39:06.063Z,59.28
2019-03-23T19:41:37.247Z,59.84
2019-03-23T19:44:09.004Z,60.21
2019-03-23T19:46:40.740Z,60.00
2019-03-23T19:49:11.771Z,59.98
2019-03-23T19:51:43.234Z,60.08
2019-03-23T19:54:14.459Z,60.66
2019-03-23T19:56:46.386Z,60.80
2019-03-23T19:59:17.657Z,61.31
2019-03-23T20:01:48.951Z,61.29
2019-03-23T20:04:20.136Z,61.45
2019-03-23T20:06:51.370Z,61.37
2019-03-23T20:09:23.309Z,61.46
2019-03-23T20:11:55.200Z,61.92
2019-03-23T20:14:26.300Z,62.67
2019-03-23T20:16:58.507Z,62.82
2019-03-23T20:19:29.498Z,63.15
2019-03-23T20:22:00.821Z,63.51
2019-03-23T20:24:31.960Z,63.49
2019-03-23T20:27:03.551Z,63.49
2019-03-23T20:29:34.755Z,64.16
2019-03-23T20:32:08.474Z,64.42
2019-03-23T20:34:39.829Z,64.55
2019-03-23T20:37:10.829Z,64.65
2019-03-23T20:39:42.095Z,64.86
2019-03-23T20:42:14.080Z,65.22
2019-03-23T20:44:45.651Z,65.59
2019-03-23T20:47:17.251Z,65.82
2019-03-23T20:49:48.750Z,66.21
2019-03-23T20:52:20.828Z,66.30
2019-03-23T20:54:52.109Z,66.31
2019-03-23T20:57:24.379Z,66.35
2019-03-23T20:59:56.167Z,66.35
2019-03-23T21:02:27.505Z,66.65
2019-03-23T21:04:58.748Z,66.82
2019-03-23T21:07:30.610Z,67.25
2019-03-23T21:10:02.121Z,67.53
2019-03-23T21:12:34.147Z,67.76
2019-03-23T21:15:05.458Z,67.98
2019-03-23T21:17:50.439Z,68.36
2019-03-23T21:20:10.520Z,68.70
2019-03-23T21:22:41.822Z,69.02
2019-03-23T21:25:13.289Z,68.89
2019-03-23T21:27:44.531Z,69.26
2019-03-23T21:30:16.530Z,69.53
2019-03-23T21:32:47.782Z,69.79
2019-03-23T21:35:19.385Z,69.92
2019-03-23T21:37:51.459Z,70.23
2019-03-23T21:40:22.613Z,70.54
2019-03-23T21:42:55.165Z,70.81
2019-03-23T21:45:26.607Z,70.98
2019-03-23T21:47:58.284Z,70.79
2019-03-23T21:50:30.275Z,70.70
2019-03-23T21:53:01.515Z,70.88
2019-03-23T21:55:36.064Z,70.97
2019-03-23T21:58:07.435Z,71.11
2019-03-23T22:00:39.270Z,71.31
2019-03-23T22:03:10.550Z,71.48
2019-03-23T22:05:41.736Z,71.41
2019-03-23T22:08:12.931Z,71.43
2019-03-23T22:10:44.101Z,71.66
2019-03-23T22:13:15.334Z,71.67
2019-03-23T22:15:46.448Z,71.57
2019-03-23T22:18:17.587Z,71.86
2019-03-23T22:20:48.904Z,72.17
2019-03-23T22:23:22.384Z,72.47
2019-03-23T22:25:53.658Z,72.64
2019-03-23T22:28:24.739Z,72.82
2019-03-23T22:30:56.044Z,72.92
2019-03-23T22:33:28.235Z,72.91
2019-03-23T22:35:59.700Z,73.51
2019-03-23T22:38:31.616Z,73.68
2019-03-23T22:41:02.681Z,73.97
2019-03-23T22:43:33.825Z,74.15
2019-03-23T22:46:06.233Z,73.96
2019-03-23T22:48:37.269Z,73.86
2019-03-23T22:51:08.489Z,74.07
2019-03-23T22:53:39.490Z,74.18
2019-03-23T22:56:10.655Z,74.17
2019-03-23T22:58:42.117Z,74.67
2019-03-23T23:01:13.356Z,74.85
2019-03-23T23:03:44.544Z,74.84
2019-03-23T23:06:15.800Z,75.02
2019-03-23T23:08:47.280Z,75.10
2019-03-23T23:11:18.768Z,75.29
2019-03-23T23:13:50.659Z,75.77
2019-03-23T23:16:21.948Z,76.00
2019-03-23T23:18:54.008Z,75.91
2019-03-23T23:21:25.291Z,75.81
2019-03-23T23:23:57.551Z,75.94
2019-03-23T23:26:29.065Z,75.98
2019-03-23T23:29:00.676Z,76.01
2019-03-23T23:31:31.976Z,75.93
2019-03-23T23:34:04.094Z,75.87
2019-03-23T23:36:35.290Z,75.91
2019-03-23T23:39:07.886Z,76.30
2019-03-23T23:41:38.865Z,76.06
2019-03-23T23:44:10.344Z,76.42
2019-03-23T23:46:41.348Z,76.54
2019-03-23T23:49:13.109Z,76.84
2019-03-23T23:51:50.106Z,76.97
2019-03-23T23:54:16.647Z,77.08
2019-03-23T23:56:47.965Z,76.95
2019-03-23T23:59:19.842Z,76.91
